createdAt,value
2023-04-19T00:00:15.022Z,54.96
2023-04-19T00:01:15.049Z,54.98
2023-04-19T00:02:15.139Z,54.97
2023-04-19T00:03:15.286Z,54.94
2023-04-19T00:04:15.520Z,54.98
2023-04-19T00:05:15.099Z,55.27
2023-04-19T00:06:15.147Z,55.68
2023-04-19T00:07:15.091Z,55.61
2023-04-19T00:08:15.145Z,55.69
2023-04-19T00:09:15.176Z,55.63
2023-04-19T00:10:15.178Z,55.39
2023-04-19T00:11:15.192Z,55.39
2023-04-19T00:12:15.200Z,55.27
2023-04-19T00:13:15.212Z,55.22
2023-04-19T00:14:15.399Z,55.19
2023-04-19T00:15:15.212Z,55.28
2023-04-19T00:16:15.226Z,55.20
2023-04-19T00:17:15.274Z,55.22
2023-04-19T00:18:15.292Z,55.27
2023-04-19T00:19:15.317Z,55.17
2023-04-19T00:20:15.349Z,55.00
2023-04-19T00:21:15.305Z,55.27
2023-04-19T00:22:15.372Z,55.23
2023-04-19T00:23:15.389Z,55.22
2023-04-19T00:24:15.574Z,55.23
2023-04-19T00:25:15.444Z,55.17
2023-04-19T00:26:15.466Z,55.18
2023-04-19T00:27:15.540Z,55.28
2023-04-19T00:28:15.632Z,55.36
2023-04-19T00:29:15.650Z,55.38
2023-04-19T00:30:15.683Z,55.55
2023-04-19T00:31:15.698Z,55.40
2023-04-19T00:32:15.714Z,55.29
2023-04-19T00:33:15.792Z,55.43
2023-04-19T00:34:16.076Z,55.40
2023-04-19T00:35:15.898Z,55.28
2023-04-19T00:36:15.911Z,55.21
2023-04-19T00:37:15.985Z,55.17
2023-04-19T00:38:16.025Z,55.21
2023-04-19T00:39:16.057Z,55.09
2023-04-19T00:40:16.076Z,55.08
2023-04-19T00:41:16.137Z,55.17
2023-04-19T00:42:16.177Z,55.23
2023-04-19T00:43:16.228Z,55.26
2023-04-19T00:44:16.427Z,55.34
2023-04-19T00:45:16.320Z,55.58
2023-04-19T00:46:16.415Z,55.47
2023-04-19T00:47:16.425Z,55.48
2023-04-19T00:48:16.513Z,55.42
2023-04-19T00:49:16.547Z,55.37
2023-04-19T00:50:16.621Z,55.50
2023-04-19T00:51:16.699Z,55.75
2023-04-19T00:52:16.752Z,55.63
2023-04-19T00:53:16.762Z,55.54
2023-04-19T00:54:17.104Z,55.64
2023-04-19T00:55:16.887Z,55.85
2023-04-19T00:56:16.956Z,55.72
2023-04-19T00:57:17.048Z,55.74
2023-04-19T00:58:17.067Z,55.56
2023-04-19T00:59:17.117Z,55.56
2023-04-19T01:00:17.215Z,55.54
2023-04-19T01:01:17.308Z,55.46
2023-04-19T01:02:17.381Z,55.45
2023-04-19T01:03:17.575Z,55.37
2023-04-19T01:04:17.675Z,55.26
2023-04-19T01:05:17.497Z,55.38
2023-04-19T01:06:17.573Z,55.53
2023-04-19T01:07:17.614Z,55.61
2023-04-19T01:08:17.674Z,55.57
2023-04-19T01:09:17.746Z,55.46
2023-04-19T01:10:17.790Z,55.38
2023-04-19T01:11:17.851Z,55.37
2023-04-19T01:12:17.884Z,55.35
2023-04-19T01:13:17.990Z,55.34
2023-04-19T01:14:18.063Z,55.35
2023-04-19T01:15:18.085Z,55.35
2023-04-19T01:16:18.175Z,55.60
2023-04-19T01:17:18.205Z,55.72
2023-04-19T01:18:18.231Z,55.84
2023-04-19T01:19:18.262Z,55.73
2023-04-19T01:20:18.350Z,55.64
2023-04-19T01:21:18.386Z,55.65
2023-04-19T01:22:18.473Z,55.76
2023-04-19T01:23:18.485Z,55.62
2023-04-19T01:24:18.578Z,55.60
2023-04-19T01:25:18.620Z,55.84
2023-04-19T01:26:18.740Z,55.69
2023-04-19T01:27:18.714Z,55.68
2023-04-19T01:28:18.791Z,55.54
2023-04-19T01:29:18.882Z,55.56
2023-04-19T01:30:18.901Z,55.50
2023-04-19T01:31:18.993Z,55.48
2023-04-19T01:32:19.017Z,55.33
2023-04-19T01:33:19.073Z,55.40
2023-04-19T01:34:19.133Z,55.25
2023-04-19T01:35:19.181Z,55.13
2023-04-19T01:36:19.240Z,55.23
2023-04-19T01:37:19.318Z,55.19
2023-04-19T01:38:19.369Z,55.20
2023-04-19T01:39:19.425Z,55.28
2023-04-19T01:40:19.581Z,55.34
2023-04-19T01:41:19.515Z,55.24
2023-04-19T01:42:19.601Z,55.14
2023-04-19T01:43:19.650Z,55.22
2023-04-19T01:44:19.703Z,55.29
2023-04-19T01:45:19.762Z,55.45
2023-04-19T01:46:19.880Z,55.53
2023-04-19T01:47:19.915Z,55.55
2023-04-19T01:48:20.007Z,55.37
2023-04-19T01:49:20.062Z,55.41
2023-04-19T01:50:20.093Z,55.58
2023-04-19T01:51:20.164Z,55.55
2023-04-19T01:52:20.212Z,55.54
2023-04-19T01:53:20.279Z,55.53
2023-04-19T01:54:20.335Z,55.45
2023-04-19T01:55:20.400Z,55.43
2023-04-19T01:56:20.463Z,55.46
2023-04-19T01:57:20.543Z,55.45
2023-04-19T01:58:20.636Z,55.53
2023-04-19T01:59:20.714Z,55.48
2023-04-19T02:00:20.780Z,55.28
2023-04-19T02:01:20.997Z,55.24
2023-04-19T02:02:21.131Z,55.13
2023-04-19T02:03:21.098Z,55.11
2023-04-19T02:04:21.238Z,55.10
2023-04-19T02:05:21.132Z,55.04
2023-04-19T02:06:21.153Z,54.99
2023-04-19T02:07:21.193Z,55.05
2023-04-19T02:08:21.253Z,55.12
2023-04-19T02:09:21.331Z,55.34
2023-04-19T02:10:21.372Z,55.27
2023-04-19T02:11:21.431Z,55.19
2023-04-19T02:12:21.477Z,55.09
2023-04-19T02:13:21.542Z,55.01
2023-04-19T02:14:21.660Z,55.04
2023-04-19T02:15:21.656Z,54.95
2023-04-19T02:16:21.784Z,54.92
2023-04-19T02:17:21.804Z,54.90
2023-04-19T02:18:21.849Z,54.88
2023-04-19T02:19:21.854Z,54.87
2023-04-19T02:20:21.949Z,54.80
2023-04-19T02:21:21.934Z,54.76
2023-04-19T02:22:22.009Z,54.75
2023-04-19T02:23:22.145Z,54.69
2023-04-19T02:24:22.180Z,54.69
2023-04-19T02:25:22.197Z,54.82
2023-04-19T02:26:22.254Z,54.84
2023-04-19T02:27:22.312Z,54.75
2023-04-19T02:28:22.333Z,54.81
2023-04-19T02:29:22.408Z,54.81
2023-04-19T02:30:22.501Z,54.82
2023-04-19T02:31:22.575Z,54.90
2023-04-19T02:32:22.686Z,55.10
2023-04-19T02:33:22.668Z,55.12
2023-04-19T02:34:22.710Z,55.14
2023-04-19T02:35:22.756Z,55.14
2023-04-19T02:36:22.801Z,55.21
2023-04-19T02:37:22.855Z,55.07
2023-04-19T02:38:22.937Z,55.09
2023-04-19T02:39:22.993Z,55.05
2023-04-19T02:40:23.113Z,55.10
2023-04-19T02:41:23.126Z,55.05
2023-04-19T02:42:23.204Z,55.05
2023-04-19T02:43:23.230Z,55.07
2023-04-19T02:44:23.280Z,55.15
2023-04-19T02:45:23.294Z,55.07
2023-04-19T02:46:23.351Z,55.33
2023-04-19T02:47:23.356Z,55.80
2023-04-19T02:48:23.387Z,55.72
2023-04-19T02:49:23.429Z,55.63
2023-04-19T02:50:23.501Z,55.49
2023-04-19T02:51:23.557Z,55.48
2023-04-19T02:52:23.637Z,55.49
2023-04-19T02:53:23.722Z,55.40
2023-04-19T02:54:23.776Z,55.32
2023-04-19T02:55:23.772Z,55.23
2023-04-19T02:56:23.887Z,55.21
2023-04-19T02:57:23.889Z,55.21
2023-04-19T02:58:23.952Z,55.25
2023-04-19T02:59:24.014Z,55.23
2023-04-19T03:00:24.076Z,55.17
2023-04-19T03:01:24.169Z,55.13
2023-04-19T03:02:24.312Z,55.24
2023-04-19T03:03:24.341Z,55.19
2023-04-19T03:04:24.508Z,55.10
2023-04-19T03:05:24.510Z,55.16
2023-04-19T03:06:24.499Z,55.20
2023-04-19T03:07:24.526Z,55.21
2023-04-19T03:08:24.627Z,55.13
2023-04-19T03:09:24.649Z,55.11
2023-04-19T03:10:24.806Z,55.15
2023-04-19T03:11:24.800Z,55.19
2023-04-19T03:12:24.837Z,55.26
2023-04-19T03:13:24.928Z,55.29
2023-04-19T03:14:25.000Z,55.34
2023-04-19T03:15:25.036Z,55.31
2023-04-19T03:16:25.230Z,55.33
2023-04-19T03:17:25.210Z,55.28
2023-04-19T03:18:25.250Z,55.26
2023-04-19T03:19:25.277Z,55.28
2023-04-19T03:20:25.395Z,55.26
2023-04-19T03:21:25.394Z,55.20
2023-04-19T03:22:25.453Z,55.18
2023-04-19T03:23:25.528Z,55.20
2023-04-19T03:24:25.603Z,55.24
2023-04-19T03:25:25.660Z,55.21
2023-04-19T03:26:25.736Z,55.25
2023-04-19T03:27:25.761Z,55.43
2023-04-19T03:28:25.784Z,55.53
2023-04-19T03:29:25.884Z,55.51
2023-04-19T03:30:25.919Z,55.60
2023-04-19T03:31:26.067Z,55.62
2023-04-19T03:32:26.093Z,55.60
2023-04-19T03:33:26.106Z,55.59
2023-04-19T03:34:26.210Z,55.69
2023-04-19T03:35:26.268Z,55.69
2023-04-19T03:36:26.286Z,55.86
2023-04-19T03:37:26.377Z,55.89
2023-04-19T03:38:26.454Z,55.86
2023-04-19T03:39:26.512Z,56.10
2023-04-19T03:40:26.609Z,56.23
2023-04-19T03:41:26.700Z,56.16
2023-04-19T03:42:28.869Z,56.00
2023-04-19T03:43:26.798Z,55.91
2023-04-19T03:44:26.868Z,56.07
2023-04-19T03:45:26.902Z,56.11
2023-04-19T03:46:27.000Z,55.94
2023-04-19T03:47:27.055Z,55.94
2023-04-19T03:48:27.083Z,55.84
2023-04-19T03:49:27.149Z,55.71
2023-04-19T03:50:27.179Z,55.75
2023-04-19T03:51:27.277Z,55.79
2023-04-19T03:52:27.287Z,55.86
2023-04-19T03:53:27.369Z,55.89
2023-04-19T03:54:27.438Z,55.94
2023-04-19T03:55:27.493Z,55.95
2023-04-19T03:56:27.556Z,56.05
2023-04-19T03:57:27.618Z,56.05
2023-04-19T03:58:27.670Z,55.94
2023-04-19T03:59:27.744Z,55.89
2023-04-19T04:00:27.827Z,55.87
2023-04-19T04:01:27.854Z,55.89
2023-04-19T04:02:28.002Z,55.90
2023-04-19T04:03:28.137Z,56.22
2023-04-19T04:04:28.162Z,56.44
2023-04-19T04:05:28.159Z,56.53
2023-04-19T04:06:28.142Z,56.48
2023-04-19T04:07:28.214Z,56.49
2023-04-19T04:08:28.292Z,56.43
2023-04-19T04:09:28.378Z,56.51
2023-04-19T04:10:28.446Z,56.50
2023-04-19T04:11:28.473Z,56.51
2023-04-19T04:12:28.520Z,56.29
2023-04-19T04:13:28.644Z,56.17
2023-04-19T04:14:28.739Z,56.05
2023-04-19T04:15:28.808Z,56.09
2023-04-19T04:16:28.904Z,56.18
2023-04-19T04:17:28.958Z,56.27
2023-04-19T04:18:28.963Z,56.12
2023-04-19T04:19:29.040Z,56.13
2023-04-19T04:20:29.083Z,56.13
2023-04-19T04:21:29.152Z,56.11
2023-04-19T04:22:29.243Z,56.12
2023-04-19T04:23:29.273Z,56.02
2023-04-19T04:24:29.381Z,56.04
2023-04-19T04:25:29.382Z,56.22
2023-04-19T04:26:29.506Z,56.49
2023-04-19T04:27:29.522Z,56.65
2023-04-19T04:28:29.624Z,56.78
2023-04-19T04:29:29.655Z,56.92
2023-04-19T04:30:29.694Z,56.91
2023-04-19T04:31:29.818Z,57.03
2023-04-19T04:32:29.799Z,56.99
2023-04-19T04:33:29.859Z,56.91
2023-04-19T04:34:29.904Z,56.67
2023-04-19T04:35:30.067Z,56.64
2023-04-19T04:36:30.032Z,56.63
2023-04-19T04:37:30.101Z,56.60
2023-04-19T04:38:30.164Z,56.63
2023-04-19T04:39:30.245Z,56.65
2023-04-19T04:40:30.271Z,56.54
2023-04-19T04:41:30.378Z,56.93
2023-04-19T04:42:30.437Z,57.22
2023-04-19T04:43:30.510Z,57.32
2023-04-19T04:44:30.544Z,57.26
2023-04-19T04:45:30.654Z,57.59
2023-04-19T04:46:30.671Z,57.54
2023-04-19T04:47:30.788Z,57.22
2023-04-19T04:48:30.819Z,57.09
2023-04-19T04:49:30.863Z,57.07
2023-04-19T04:50:30.891Z,57.08
2023-04-19T04:51:30.995Z,57.01
2023-04-19T04:52:31.040Z,57.26
2023-04-19T04:53:31.101Z,57.26
2023-04-19T04:54:31.166Z,57.15
2023-04-19T04:55:31.237Z,57.17
2023-04-19T04:56:31.367Z,57.43
2023-04-19T04:57:31.384Z,57.33
2023-04-19T04:58:31.528Z,57.32
2023-04-19T04:59:31.625Z,57.23
2023-04-19T05:00:31.663Z,57.09
2023-04-19T05:01:31.758Z,56.99
2023-04-19T05:02:31.872Z,56.98
2023-04-19T05:03:31.930Z,56.96
2023-04-19T05:04:31.941Z,57.07
2023-04-19T05:05:31.956Z,56.91
2023-04-19T05:06:32.058Z,56.85
2023-04-19T05:07:32.108Z,56.83
2023-04-19T05:08:32.203Z,56.88
2023-04-19T05:09:32.253Z,56.75
2023-04-19T05:10:32.362Z,56.80
2023-04-19T05:11:32.432Z,56.88
2023-04-19T05:12:32.495Z,56.72
2023-04-19T05:13:32.511Z,56.82
2023-04-19T05:14:32.562Z,57.07
2023-04-19T05:15:32.654Z,57.22
2023-04-19T05:16:32.736Z,57.11
2023-04-19T05:17:32.808Z,57.04
2023-04-19T05:18:32.788Z,57.11
2023-04-19T05:19:32.842Z,57.19
2023-04-19T05:20:32.917Z,57.23
2023-04-19T05:21:32.961Z,57.47
2023-04-19T05:22:33.067Z,57.38
2023-04-19T05:23:33.108Z,57.19
2023-04-19T05:24:33.151Z,57.20
2023-04-19T05:25:33.231Z,57.27
2023-04-19T05:26:33.258Z,57.30
2023-04-19T05:27:33.306Z,57.17
2023-04-19T05:28:33.409Z,57.08
2023-04-19T05:29:33.478Z,57.02
2023-04-19T05:30:33.538Z,57.29
2023-04-19T05:31:33.625Z,57.25
2023-04-19T05:32:33.706Z,57.22
2023-04-19T05:33:33.700Z,57.17
2023-04-19T05:34:33.812Z,57.09
2023-04-19T05:35:33.769Z,56.98
2023-04-19T05:36:33.842Z,57.72
2023-04-19T05:37:33.896Z,57.21
2023-04-19T05:38:33.936Z,57.17
2023-04-19T05:39:33.974Z,57.06
2023-04-19T05:40:34.006Z,57.19
2023-04-19T05:41:34.059Z,57.22
2023-04-19T05:42:34.088Z,57.09
2023-04-19T05:43:34.123Z,56.91
2023-04-19T05:44:34.619Z,56.83
2023-04-19T05:45:34.308Z,56.71
2023-04-19T05:46:34.396Z,56.78
2023-04-19T05:47:34.420Z,56.97
2023-04-19T05:48:34.396Z,56.84
2023-04-19T05:49:34.438Z,56.78
2023-04-19T05:50:34.485Z,56.83
2023-04-19T05:51:34.571Z,56.97
2023-04-19T05:52:34.649Z,56.97
2023-04-19T05:53:34.653Z,56.80
2023-04-19T05:54:34.670Z,56.98
2023-04-19T05:55:34.758Z,56.98
2023-04-19T05:56:34.798Z,57.01
2023-04-19T05:57:34.823Z,57.07
2023-04-19T05:58:34.845Z,57.03
2023-04-19T05:59:34.905Z,57.00
2023-04-19T06:00:34.928Z,56.79
2023-04-19T06:01:34.977Z,56.67
2023-04-19T06:02:35.156Z,56.74
2023-04-19T06:03:35.235Z,56.76
2023-04-19T06:04:35.329Z,56.95
2023-04-19T06:05:35.202Z,57.15
2023-04-19T06:06:35.205Z,57.02
2023-04-19T06:07:40.176Z,57.10
2023-04-19T06:08:36.267Z,57.10
2023-04-19T06:09:35.256Z,57.21
2023-04-19T06:10:49.690Z,57.20
2023-04-19T06:11:46.851Z,57.40
2023-04-19T06:12:36.270Z,57.72
2023-04-19T06:13:35.224Z,57.71
2023-04-19T06:14:35.218Z,57.62
2023-04-19T06:15:35.272Z,57.93
2023-04-19T06:16:35.299Z,57.90
2023-04-19T06:17:35.288Z,57.97
2023-04-19T06:18:35.234Z,58.09
2023-04-19T06:19:35.178Z,58.02
2023-04-19T06:20:35.204Z,57.83
2023-04-19T06:21:35.192Z,57.74
2023-04-19T06:22:35.213Z,57.77
2023-04-19T06:23:35.186Z,57.81
2023-04-19T06:24:35.481Z,57.73
2023-04-19T06:25:35.150Z,57.69
2023-04-19T06:26:35.160Z,57.90
2023-04-19T06:27:35.136Z,57.80
2023-04-19T06:28:35.152Z,57.56
2023-04-19T06:29:35.115Z,57.45
2023-04-19T06:30:35.158Z,57.54
2023-04-19T06:31:35.146Z,57.75
2023-04-19T06:32:35.208Z,57.63
2023-04-19T06:33:35.110Z,57.53
2023-04-19T06:34:35.109Z,57.66
2023-04-19T06:35:35.104Z,57.72
2023-04-19T06:36:35.065Z,57.92
2023-04-19T06:37:35.070Z,58.03
2023-04-19T06:38:35.081Z,58.20
2023-04-19T06:39:35.050Z,58.13
2023-04-19T06:40:35.076Z,57.93
2023-04-19T06:41:35.047Z,57.63
2023-04-19T06:42:35.057Z,57.55
2023-04-19T06:43:35.035Z,57.50
2023-04-19T06:44:35.004Z,57.84
2023-04-19T06:45:35.099Z,57.91
2023-04-19T06:46:35.014Z,57.93
2023-04-19T06:47:35.843Z,58.15
2023-04-19T06:48:35.052Z,57.90
2023-04-19T06:49:35.249Z,58.13
2023-04-19T06:50:35.281Z,58.05
2023-04-19T06:51:35.213Z,57.95
2023-04-19T06:52:35.384Z,57.74
2023-04-19T06:53:35.083Z,57.69
2023-04-19T06:54:35.118Z,57.79
2023-04-19T06:55:35.075Z,57.73
2023-04-19T06:56:35.071Z,57.99
2023-04-19T06:57:35.077Z,58.20
2023-04-19T06:58:35.513Z,58.26
2023-04-19T06:59:35.101Z,58.25
2023-04-19T07:00:35.115Z,58.40
2023-04-19T07:01:35.218Z,58.42
2023-04-19T07:02:35.325Z,58.42
2023-04-19T07:03:35.371Z,58.40
2023-04-19T07:04:35.483Z,58.43
2023-04-19T07:05:35.292Z,58.16
2023-04-19T07:06:35.255Z,58.29
2023-04-19T07:07:35.257Z,58.79
2023-04-19T07:08:48.693Z,58.65
2023-04-19T07:09:36.281Z,58.81
2023-04-19T07:10:35.252Z,58.96
2023-04-19T07:11:35.259Z,58.98
2023-04-19T07:12:35.238Z,58.84
2023-04-19T07:13:35.255Z,58.63
2023-04-19T07:14:35.258Z,58.51
2023-04-19T07:15:35.303Z,58.21
2023-04-19T07:16:35.208Z,58.13
2023-04-19T07:17:35.265Z,58.10
2023-04-19T07:18:35.226Z,58.02
2023-04-19T07:19:35.187Z,57.94
2023-04-19T07:20:35.627Z,58.04
2023-04-19T07:21:35.172Z,57.74
2023-04-19T07:22:35.221Z,57.60
2023-04-19T07:23:35.153Z,57.63
2023-04-19T07:24:35.173Z,57.62
2023-04-19T07:25:35.616Z,57.65
2023-04-19T07:26:35.132Z,57.71
2023-04-19T07:27:35.150Z,57.54
2023-04-19T07:28:35.145Z,57.36
2023-04-19T07:29:35.125Z,57.17
2023-04-19T07:30:36.623Z,57.05
2023-04-19T07:31:35.088Z,57.17
2023-04-19T07:32:35.212Z,57.30
2023-04-19T07:33:35.137Z,57.57
2023-04-19T07:34:35.086Z,57.20
2023-04-19T07:35:35.136Z,57.11
2023-04-19T07:36:35.043Z,57.45
2023-04-19T07:37:35.068Z,57.55
2023-04-19T07:38:35.029Z,57.60
2023-04-19T07:39:35.047Z,57.51
2023-04-19T07:40:35.114Z,57.34
2023-04-19T07:41:36.305Z,57.39
2023-04-19T07:42:35.047Z,57.31
2023-04-19T07:43:35.066Z,57.31
2023-04-19T07:44:35.094Z,57.35
2023-04-19T07:45:35.628Z,57.44
2023-04-19T07:46:35.236Z,57.49
2023-04-19T07:47:35.207Z,57.42
2023-04-19T07:48:35.230Z,57.23
2023-04-19T07:49:35.230Z,57.06
2023-04-19T07:50:35.625Z,57.02
2023-04-19T07:51:35.359Z,56.98
2023-04-19T07:52:35.363Z,56.90
2023-04-19T07:53:35.416Z,57.05
2023-04-19T07:54:35.526Z,57.01
2023-04-19T07:55:35.557Z,56.80
2023-04-19T07:56:35.636Z,56.93
2023-04-19T07:57:35.664Z,57.13
2023-04-19T07:58:35.719Z,56.81
2023-04-19T07:59:35.837Z,56.95
2023-04-19T08:00:35.842Z,56.87
2023-04-19T08:01:36.051Z,56.70
2023-04-19T08:02:36.109Z,56.69
2023-04-19T08:03:36.133Z,56.10
2023-04-19T08:04:36.274Z,55.67
2023-04-19T08:05:36.248Z,55.29
2023-04-19T08:06:36.178Z,54.87
2023-04-19T08:07:36.268Z,54.69
2023-04-19T08:08:36.265Z,54.76
2023-04-19T08:09:36.332Z,54.83
2023-04-19T08:10:36.356Z,55.14
2023-04-19T08:11:36.436Z,55.18
2023-04-19T08:12:41.187Z,55.02
2023-04-19T08:13:37.874Z,55.11
2023-04-19T08:14:47.549Z,55.28
2023-04-19T08:16:20.528Z,55.36
2023-04-19T08:17:41.774Z,55.82
2023-04-19T08:18:37.468Z,55.89
2023-04-19T08:19:36.442Z,56.03
2023-04-19T08:20:36.449Z,56.00
2023-04-19T08:21:41.330Z,56.11
2023-04-19T08:22:37.410Z,56.07
2023-04-19T08:23:47.273Z,55.68
2023-04-19T08:24:37.422Z,55.63
2023-04-19T08:25:36.400Z,55.71
2023-04-19T08:26:36.388Z,55.74
2023-04-19T08:27:36.362Z,55.65
2023-04-19T08:28:36.375Z,55.49
2023-04-19T08:29:36.384Z,55.43
2023-04-19T08:30:36.343Z,55.57
2023-04-19T08:31:36.437Z,55.67
2023-04-19T08:32:36.362Z,55.15
2023-04-19T08:33:36.327Z,55.20
2023-04-19T08:34:36.353Z,55.13
2023-04-19T08:35:36.372Z,55.00
2023-04-19T08:36:43.396Z,55.26
2023-04-19T08:37:37.356Z,55.42
2023-04-19T08:38:36.338Z,55.39
2023-04-19T08:39:36.644Z,55.42
2023-04-19T08:40:36.329Z,55.19
2023-04-19T08:41:36.359Z,54.77
2023-04-19T08:42:37.230Z,54.66
2023-04-19T08:43:36.305Z,54.58
2023-04-19T08:44:37.397Z,54.67
2023-04-19T08:45:36.372Z,54.99
2023-04-19T08:46:36.431Z,54.84
2023-04-19T08:47:39.769Z,55.09
2023-04-19T08:48:37.384Z,55.18
2023-04-19T08:49:36.286Z,54.99
2023-04-19T08:50:48.502Z,54.92
2023-04-19T08:51:37.230Z,54.80
2023-04-19T08:52:47.768Z,54.57
2023-04-19T08:53:37.220Z,54.11
2023-04-19T08:54:36.242Z,54.36
2023-04-19T08:55:36.211Z,54.21
2023-04-19T08:56:36.229Z,54.27
2023-04-19T08:57:36.206Z,54.43
2023-04-19T08:58:46.690Z,54.43
2023-04-19T08:59:37.274Z,53.93
2023-04-19T09:00:36.691Z,53.90
2023-04-19T09:01:36.718Z,53.54
2023-04-19T09:02:36.360Z,53.27
2023-04-19T09:03:44.276Z,52.98
2023-04-19T09:04:37.927Z,53.14
2023-04-19T09:05:36.303Z,53.22
2023-04-19T09:06:36.214Z,53.55
2023-04-19T09:07:36.119Z,53.39
2023-04-19T09:08:36.135Z,53.33
2023-04-19T09:09:43.149Z,53.23
2023-04-19T09:10:37.122Z,53.61
2023-04-19T09:11:36.085Z,53.23
2023-04-19T09:12:36.091Z,53.41
2023-04-19T09:13:36.151Z,53.62
2023-04-19T09:14:36.064Z,53.68
2023-04-19T09:15:36.074Z,53.62
2023-04-19T09:16:36.049Z,53.70
2023-04-19T09:17:36.074Z,53.28
2023-04-19T09:18:42.578Z,52.90
2023-04-19T09:19:37.013Z,52.86
2023-04-19T09:20:36.031Z,52.40
2023-04-19T09:21:36.070Z,52.82
2023-04-19T09:22:36.032Z,52.52
2023-04-19T09:23:36.012Z,52.68
2023-04-19T09:24:57.227Z,52.45
2023-04-19T09:25:55.154Z,52.65
2023-04-19T09:26:37.008Z,52.50
2023-04-19T09:27:35.989Z,52.68
2023-04-19T09:28:35.984Z,53.03
2023-04-19T09:29:35.980Z,52.84
2023-04-19T09:30:40.489Z,52.57
2023-04-19T09:32:36.964Z,52.95
2023-04-19T09:33:35.946Z,52.98
2023-04-19T09:34:35.919Z,52.86
2023-04-19T09:35:35.935Z,52.46
2023-04-19T09:36:35.915Z,52.55
2023-04-19T09:38:01.408Z,52.46
2023-04-19T09:38:36.904Z,52.48
2023-04-19T09:39:35.889Z,52.57
2023-04-19T09:40:35.933Z,52.60
2023-04-19T09:41:38.134Z,52.41
2023-04-19T09:42:55.255Z,52.16
2023-04-19T09:45:35.951Z,52.04
2023-04-19T09:46:35.961Z,51.58
2023-04-19T09:47:35.872Z,51.49
2023-04-19T09:48:35.855Z,51.48
2023-04-19T09:50:46.626Z,51.64
2023-04-19T09:51:36.847Z,51.76
2023-04-19T09:52:35.814Z,51.71
2023-04-19T09:53:35.833Z,51.39
2023-04-19T09:54:35.784Z,51.49
2023-04-19T09:56:35.818Z,51.34
2023-04-19T09:57:35.756Z,51.07
2023-04-19T09:59:35.805Z,50.80
2023-04-19T10:00:45.450Z,51.00
2023-04-19T10:01:36.859Z,51.12
2023-04-19T10:02:35.986Z,50.97
2023-04-19T10:03:36.027Z,50.70
2023-04-19T10:04:50.420Z,50.69
2023-04-19T10:05:36.864Z,50.89
2023-04-19T10:06:51.815Z,50.93
2023-04-19T10:07:36.836Z,50.81
2023-04-19T10:08:35.735Z,50.44
2023-04-19T10:09:39.990Z,50.57
2023-04-19T10:11:35.727Z,48.78
2023-04-19T10:13:35.689Z,49.02
2023-04-19T10:14:35.654Z,49.04
2023-04-19T10:15:47.250Z,49.04
2023-04-19T10:16:36.740Z,50.26
2023-04-19T10:17:35.655Z,49.79
2023-04-19T10:18:35.678Z,49.76
2023-04-19T10:19:35.606Z,49.00
2023-04-19T10:20:35.673Z,48.56
2023-04-19T10:21:35.664Z,48.77
2023-04-19T10:22:35.606Z,48.78
2023-04-19T10:23:35.634Z,48.55
2023-04-19T10:24:35.630Z,48.45
2023-04-19T10:25:35.603Z,48.41
2023-04-19T10:26:35.694Z,48.50
2023-04-19T10:27:35.692Z,47.73
2023-04-19T10:28:35.727Z,47.82
2023-04-19T10:29:35.791Z,47.71
2023-04-19T10:30:35.861Z,47.74
2023-04-19T10:31:36.218Z,47.65
2023-04-19T10:32:36.015Z,47.70
2023-04-19T10:33:36.046Z,48.01
2023-04-19T10:34:36.090Z,47.98
2023-04-19T10:35:36.148Z,47.81
2023-04-19T10:36:36.712Z,47.76
2023-04-19T10:37:36.234Z,47.80
2023-04-19T10:38:36.275Z,47.65
2023-04-19T10:39:36.336Z,46.83
2023-04-19T10:40:36.347Z,47.05
2023-04-19T10:41:36.689Z,47.42
2023-04-19T10:42:36.373Z,47.13
2023-04-19T10:43:36.434Z,46.97
2023-04-19T10:44:36.441Z,46.18
2023-04-19T10:45:36.518Z,45.91
2023-04-19T10:46:36.617Z,45.59
2023-04-19T10:47:37.476Z,45.65
2023-04-19T10:48:36.416Z,45.96
2023-04-19T10:49:36.433Z,46.14
2023-04-19T10:50:36.405Z,45.95
2023-04-19T10:51:36.712Z,46.14
2023-04-19T10:52:36.427Z,46.27
2023-04-19T10:53:36.424Z,46.50
2023-04-19T10:54:36.441Z,46.43
2023-04-19T10:55:36.472Z,46.38
2023-04-19T10:56:36.386Z,45.64
2023-04-19T10:57:36.401Z,45.41
2023-04-19T10:58:36.355Z,48.12
2023-04-19T10:59:36.368Z,46.77
2023-04-19T11:00:36.378Z,49.15
2023-04-19T11:01:36.721Z,52.18
2023-04-19T11:02:36.640Z,47.33
2023-04-19T11:03:36.700Z,46.84
2023-04-19T11:04:36.566Z,50.14
2023-04-19T11:05:36.568Z,46.56
2023-04-19T11:06:36.619Z,45.04
2023-04-19T11:07:36.681Z,47.83
2023-04-19T11:08:36.690Z,48.03
2023-04-19T11:09:36.747Z,47.93
2023-04-19T11:10:36.745Z,49.84
2023-04-19T11:11:36.764Z,47.02
2023-04-19T11:12:36.760Z,47.50
2023-04-19T11:13:36.810Z,45.58
2023-04-19T11:14:36.787Z,45.33
2023-04-19T11:15:36.809Z,45.28
2023-04-19T11:16:45.875Z,45.19
2023-04-19T11:17:37.878Z,44.40
2023-04-19T11:18:36.824Z,44.40
2023-04-19T11:19:36.818Z,44.34
2023-04-19T11:20:36.774Z,43.44
2023-04-19T11:21:36.760Z,43.51
2023-04-19T11:22:36.809Z,43.67
2023-04-19T11:23:36.769Z,44.17
2023-04-19T11:24:36.806Z,43.75
2023-04-19T11:25:36.808Z,44.00
2023-04-19T11:26:36.841Z,44.01
2023-04-19T11:27:36.829Z,44.03
2023-04-19T11:28:36.839Z,43.89
2023-04-19T11:29:36.871Z,43.42
2023-04-19T11:30:36.890Z,43.23
2023-04-19T11:31:36.940Z,43.36
2023-04-19T11:32:36.964Z,43.87
2023-04-19T11:33:36.907Z,44.06
2023-04-19T11:34:36.907Z,44.07
2023-04-19T11:35:36.878Z,43.91
2023-04-19T11:36:36.998Z,44.42
2023-04-19T11:37:36.962Z,44.52
2023-04-19T11:38:36.900Z,44.54
2023-04-19T11:39:36.937Z,44.13
2023-04-19T11:40:36.941Z,44.00
2023-04-19T11:41:36.960Z,43.62
2023-04-19T11:42:36.987Z,43.62
2023-04-19T11:43:37.034Z,43.08
2023-04-19T11:44:37.025Z,43.34
2023-04-19T11:45:39.763Z,43.28
2023-04-19T11:46:37.172Z,43.56
2023-04-19T11:47:37.126Z,43.69
2023-04-19T11:48:37.038Z,43.41
2023-04-19T11:49:37.061Z,43.25
2023-04-19T11:50:37.060Z,43.51
2023-04-19T11:51:37.033Z,43.78
2023-04-19T11:52:37.039Z,43.02
2023-04-19T11:53:37.047Z,42.88
2023-04-19T11:54:37.011Z,42.91
2023-04-19T11:55:37.065Z,42.62
2023-04-19T11:56:37.022Z,42.28
2023-04-19T11:57:36.990Z,42.32
2023-04-19T11:58:37.011Z,42.33
2023-04-19T11:59:36.987Z,42.62
2023-04-19T12:00:36.980Z,42.70
2023-04-19T12:01:36.985Z,42.67
2023-04-19T12:02:37.019Z,42.53
2023-04-19T12:03:37.206Z,42.39
2023-04-19T12:04:37.125Z,42.66
2023-04-19T12:05:37.099Z,42.50
2023-04-19T12:06:36.965Z,42.63
2023-04-19T12:07:36.932Z,42.77
2023-04-19T12:08:36.932Z,42.67
2023-04-19T12:09:36.951Z,42.68
2023-04-19T12:10:36.983Z,42.61
2023-04-19T12:11:36.917Z,42.49
2023-04-19T12:12:36.892Z,42.20
2023-04-19T12:13:36.935Z,42.20
2023-04-19T12:14:36.880Z,42.18
2023-04-19T12:15:36.891Z,42.36
2023-04-19T12:16:36.950Z,42.24
2023-04-19T12:17:40.062Z,42.23
2023-04-19T12:18:37.857Z,42.58
2023-04-19T12:19:36.867Z,42.64
2023-04-19T12:20:36.843Z,42.85
2023-04-19T12:21:36.847Z,42.99
2023-04-19T12:22:36.842Z,42.75
2023-04-19T12:23:36.829Z,42.34
2023-04-19T12:24:36.799Z,42.70
2023-04-19T12:25:36.798Z,43.08
2023-04-19T12:26:36.842Z,43.45
2023-04-19T12:27:36.788Z,43.45
2023-04-19T12:28:36.808Z,43.65
2023-04-19T12:29:36.801Z,43.86
2023-04-19T12:30:36.809Z,44.09
2023-04-19T12:31:36.818Z,44.06
2023-04-19T12:32:36.800Z,43.97
2023-04-19T12:33:36.744Z,44.00
2023-04-19T12:34:36.781Z,44.06
2023-04-19T12:35:36.745Z,43.69
2023-04-19T12:36:36.762Z,43.71
2023-04-19T12:37:36.729Z,43.60
2023-04-19T12:38:36.678Z,43.87
2023-04-19T12:39:36.699Z,44.56
2023-04-19T12:40:36.735Z,44.98
2023-04-19T12:41:36.752Z,45.01
2023-04-19T12:42:36.674Z,45.09
2023-04-19T12:43:36.674Z,45.10
2023-04-19T12:44:36.673Z,44.82
2023-04-19T12:45:36.657Z,44.56
2023-04-19T12:46:36.661Z,44.50
2023-04-19T12:47:36.699Z,44.32
2023-04-19T12:48:36.627Z,44.57
2023-04-19T12:49:36.682Z,44.39
2023-04-19T12:50:36.726Z,43.82
2023-04-19T12:51:36.718Z,43.70
2023-04-19T12:52:36.713Z,43.75
2023-04-19T12:53:36.746Z,43.97
2023-04-19T12:54:36.824Z,43.94
2023-04-19T12:55:36.858Z,43.94
2023-04-19T12:56:36.941Z,44.21
2023-04-19T12:57:36.984Z,44.27
2023-04-19T12:58:37.067Z,44.39
2023-04-19T12:59:37.132Z,44.53
2023-04-19T13:00:37.210Z,44.59
2023-04-19T13:01:47.325Z,44.66